Time;durP1;ratioP1;P1;durP2;ratioP2;P2;SDS_P1;SDS_P2;PMS_P1;PMS_P2;Temp;Humidity;BMP_temperature;BMP_pressure;BME280_temperature;BME280_humidity;BME280_pressure;Samples;Min_cycle;Max_cycle;Signal;HPM_P1;HPM_P2
2023/04/21 00:00:36;;;;;;;34.10;21.70;;;;;;;4.88;94.48;99199.92;272243;1279;23121;-89
2023/04/21 00:08:05;;;;;;;37.90;22.80;;;;;;;4.79;95.07;99204.17;268386;1279;22552;-89
2023/04/21 00:15:22;;;;;;;38.10;22.50;;;;;;;4.76;95.57;99200.73;269840;1279;22639;-89
2023/04/21 00:22:37;;;;;;;33.60;18.80;;;;;;;4.91;97.04;99191.63;271087;1279;22573;-90
2023/04/21 00:29:48;;;;;;;36.10;20.70;;;;;;;5.05;97.25;99187.77;269554;1279;23303;-90
2023/04/21 00:37:08;;;;;;;29.80;20.60;;;;;;;5.13;97.55;99184.40;270122;1279;22300;-90
2023/04/21 00:44:46;;;;;;;42.10;24.00;;;;;;;5.20;97.99;99184.33;271766;1282;22437;-91
2023/04/21 00:52:30;;;;;;;33.10;21.30;;;;;;;5.21;98.03;99181.48;268691;1279;24268;-91
2023/04/21 01:00:25;;;;;;;40.80;25.60;;;;;;;5.24;98.31;99183.20;267252;1285;22334;-90
2023/04/21 01:07:34;;;;;;;44.00;25.80;;;;;;;5.24;98.55;99177.42;271778;1279;23396;-91
2023/04/21 01:14:50;;;;;;;46.00;27.30;;;;;;;5.22;98.81;99178.41;272243;1281;22215;-90
2023/04/21 01:22:11;;;;;;;39.80;20.90;;;;;;;5.26;99.43;99176.09;271227;1286;22364;-91
2023/04/21 01:30:17;;;;;;;41.30;24.50;;;;;;;5.36;99.69;99179.21;268426;1295;22375;-90
2023/04/21 01:38:22;;;;;;;43.90;24.60;;;;;;;5.47;99.94;99178.98;263289;1302;23006;-90
2023/04/21 01:46:28;;;;;;;41.80;22.80;;;;;;;5.51;99.93;99177.79;259908;1321;22308;-90
2023/04/21 01:54:15;;;;;;;38.00;23.10;;;;;;;5.55;100.00;99173.91;264322;1311;22975;-90
2023/04/21 02:09:51;;;;;;;43.60;23.00;;;;;;;5.61;100.00;99173.08;262169;1307;22589;-90
2023/04/21 02:17:50;;;;;;;46.90;26.20;;;;;;;5.58;100.00;99175.98;262322;1309;22611;-90
2023/04/21 02:25:34;;;;;;;40.90;26.50;;;;;;;5.49;100.00;99179.03;264172;1302;22442;-91
2023/04/21 02:33:44;;;;;;;41.60;22.70;;;;;;;5.38;100.00;99181.30;266974;1295;24294;-90
2023/04/21 02:41:03;;;;;;;40.80;22.10;;;;;;;5.28;100.00;99186.68;265871;1291;23257;-90
2023/04/21 03:03:56;;;;;;;44.30;24.70;;;;;;;4.87;100.00;99185.30;268837;1282;22650;-90
2023/04/21 03:11:49;;;;;;;38.00;24.10;;;;;;;4.69;100.00;99183.16;270046;1283;22574;-91
2023/04/21 03:19:49;;;;;;;;;;;;;;;;;;;;;
2023/04/21 03:43:04;;;;;;;42.50;24.60;;;;;;;4.31;100.00;99186.08;269990;1283;22426;-91
2023/04/21 03:50:32;;;;;;;36.10;23.60;;;;;;;4.20;100.00;99187.58;265686;1283;22630;-90
2023/04/21 03:58:13;;;;;;;37.60;25.10;;;;;;;4.10;100.00;99192.35;265798;1305;22401;-91
2023/04/21 04:05:45;;;;;;;36.40;23.50;;;;;;;4.05;100.00;99202.22;267615;1284;22329;-91
2023/04/21 04:13:08;;;;;;;39.20;24.00;;;;;;;4.05;100.00;99207.41;272183;1280;23401;-90
2023/04/21 04:28:37;;;;;;;44.30;27.40;;;;;;;4.06;100.00;99217.21;270817;1272;24211;-89
2023/04/21 04:36:41;;;;;;;41.20;24.80;;;;;;;4.12;100.00;99218.75;269015;1280;22431;-90
2023/04/21 04:50:54;;;;;;;47.10;27.80;;;;;;;4.43;100.00;99226.52;268963;1276;25442;-90
2023/04/21 04:58:05;;;;;;;52.00;27.90;;;;;;;4.83;100.00;99228.10;268013;1283;23096;-90
2023/04/21 05:06:03;;;;;;;45.50;29.10;;;;;;;5.23;100.00;99236.45;267810;1281;23525;-90
2023/04/21 05:13:58;;;;;;;41.80;25.90;;;;;;;5.77;100.00;99238.59;264945;1283;23907;-90
2023/04/21 05:21:20;;;;;;;38.50;26.30;;;;;;;6.33;100.00;99233.61;266898;1280;22458;-90
2023/04/21 05:28:50;;;;;;;41.90;25.30;;;;;;;6.75;100.00;99230.95;270993;1286;22275;-91
2023/04/21 05:35:37;;;;;;;41.70;24.00;;;;;;;7.11;100.00;99234.33;267386;1287;25461;-90
2023/04/21 05:43:32;;;;;;;38.10;20.80;;;;;;;7.50;100.00;99238.06;268858;1276;22495;-91
2023/04/21 05:51:20;;;;;;;37.10;23.20;;;;;;;8.08;100.00;99234.98;269348;1275;22539;-90
2023/04/21 05:58:12;;;;;;;34.70;20.40;;;;;;;8.79;100.00;99232.52;271283;1272;22779;-90
2023/04/21 06:05:46;;;;;;;28.90;17.20;;;;;;;9.37;100.00;99231.15;273119;1272;22275;-91
2023/04/21 06:13:42;;;;;;;24.50;14.90;;;;;;;9.94;100.00;99228.55;272635;1275;22430;-90
2023/04/21 06:20:56;;;;;;;28.40;14.40;;;;;;;10.50;100.00;99226.20;272942;1270;23048;-90
2023/04/21 06:27:17;;;;;;;24.70;14.40;;;;;;;10.86;100.00;99232.73;272461;1262;22885;-90
2023/04/21 06:35:03;;;;;;;29.50;16.30;;;;;;;11.24;98.96;99232.30;269144;1272;23951;-90
2023/04/21 06:43:01;;;;;;;;;;;;;;;;;;;;;
2023/04/21 06:50:16;;;;;;;29.80;15.00;;;;;;;11.86;95.66;99226.02;272428;1276;22352;-89
2023/04/21 06:57:36;;;;;;;31.50;14.60;;;;;;;12.12;94.39;99226.58;270718;1273;23557;-89
2023/04/21 07:03:59;;;;;;;23.40;13.00;;;;;;;12.29;93.00;99227.35;271443;1273;22248;-90
2023/04/21 07:18:17;;;;;;;27.10;14.40;;;;;;;12.65;91.56;99217.79;269784;1272;23409;-90
2023/04/21 07:26:11;;;;;;;23.10;13.20;;;;;;;12.94;91.51;99212.70;269911;1271;22538;-90
2023/04/21 07:33:55;;;;;;;30.10;13.20;;;;;;;13.38;91.27;99208.73;270630;1273;23209;-91
2023/04/21 07:41:14;;;;;;;17.80;10.40;;;;;;;14.08;90.06;99204.79;269555;1273;22625;-88
2023/04/21 07:48:57;;;;;;;21.40;10.70;;;;;;;14.64;88.36;99201.15;268747;1275;22741;-89
2023/04/21 07:56:49;;;;;;;16.30;9.70;;;;;;;15.20;87.29;99201.14;267667;1281;22568;-89
2023/04/21 08:04:59;;;;;;;;;;;;;;;;;;;;;
2023/04/21 08:12:21;;;;;;;23.90;11.90;;;;;;;16.40;82.98;99204.59;269929;1273;22442;-86
2023/04/21 08:20:28;;;;;;;24.40;11.50;;;;;;;16.56;81.16;99199.31;268705;1276;23012;-88
2023/04/21 08:36:12;;;;;;;17.70;9.20;;;;;;;16.94;77.73;99190.46;270860;1280;23051;-88
2023/04/21 08:51:31;;;;;;;21.70;9.50;;;;;;;17.39;73.87;99181.22;272160;1276;23593;-88
2023/04/21 09:07:02;;;;;;;14.70;7.60;;;;;;;18.11;69.59;99166.48;271132;1271;22578;-87
2023/04/21 09:14:56;;;;;;;13.60;7.90;;;;;;;18.44;65.79;99161.98;270982;1270;23215;-89
2023/04/21 09:22:35;;;;;;;15.50;8.40;;;;;;;18.86;64.75;99152.39;272980;1270;22442;-89
2023/04/21 09:29:52;;;;;;;12.60;7.70;;;;;;;19.19;61.60;99144.35;273151;1266;22274;-87
2023/04/21 09:36:34;;;;;;;12.90;7.30;;;;;;;19.71;60.05;99139.63;271313;1267;24212;-88
2023/04/21 09:44:06;;;;;;;10.70;6.40;;;;;;;20.49;58.62;99137.52;273450;1267;22230;-87
2023/04/21 09:51:33;;;;;;;14.90;7.80;;;;;;;21.54;56.91;99133.42;273781;1266;23372;-89
2023/04/21 10:06:57;;;;;;;10.20;7.40;;;;;;;22.19;52.51;99122.77;269747;1269;22557;-88
2023/04/21 10:13:42;;;;;;;12.10;7.60;;;;;;;21.61;50.04;99121.02;270586;1269;22315;-87
2023/04/21 10:20:45;;;;;;;12.10;6.80;;;;;;;20.42;48.81;99121.54;270908;1270;22593;-87
2023/04/21 10:28:32;;;;;;;10.60;5.10;;;;;;;20.34;47.64;99114.42;271542;1270;22857;-85
2023/04/21 10:35:57;;;;;;;8.60;5.20;;;;;;;20.21;46.29;99111.36;272663;1267;23175;-88
2023/04/21 10:43:58;;;;;;;9.10;5.30;;;;;;;20.15;44.42;99112.94;272487;1268;22548;-87
2023/04/21 11:22:30;;;;;;;8.60;4.40;;;;;;;21.24;41.38;99089.72;270515;1273;22561;-89
2023/04/21 11:44:30;;;;;;;7.80;4.20;;;;;;;22.63;39.29;99066.31;271769;1272;22755;-88
2023/04/21 11:51:17;;;;;;;6.10;4.10;;;;;;;21.51;38.48;99070.15;272136;1269;22522;-87
2023/04/21 11:58:11;;;;;;;5.90;3.70;;;;;;;20.59;38.57;99063.09;271515;1271;23054;-88
2023/04/21 12:21:55;;;;;;;5.40;4.20;;;;;;;20.86;36.62;99044.73;272161;1269;22373;-87
2023/04/21 12:29:48;;;;;;;5.60;3.90;;;;;;;20.68;37.02;99035.80;271059;1274;22540;-88
2023/04/21 12:45:35;;;;;;;3.40;3.00;;;;;;;20.70;36.47;99016.83;270285;1272;25436;-88
2023/04/21 13:01:32;;;;;;;5.90;3.40;;;;;;;20.41;35.66;99011.70;270378;1273;22413;-86
2023/04/21 13:08:16;;;;;;;4.70;2.80;;;;;;;20.25;35.40;99012.41;270533;1269;23056;-89
2023/04/21 13:16:17;;;;;;;6.00;3.00;;;;;;;20.63;34.89;99001.60;273251;1269;22535;-89
2023/04/21 13:39:05;;;;;;;3.50;2.70;;;;;;;20.88;34.76;98981.86;272402;1271;22925;-89
2023/04/21 13:46:56;;;;;;;;;;;;;;;;;;;;;
2023/04/21 13:54:38;;;;;;;4.50;2.60;;;;;;;20.22;33.76;98974.98;269059;1287;24548;-87
2023/04/21 14:02:07;;;;;;;4.60;2.80;;;;;;;20.39;33.02;98965.63;268016;1283;22369;-88
2023/04/21 14:09:34;;;;;;;3.30;2.70;;;;;;;20.57;32.70;98956.66;269517;1276;23172;-88
2023/04/21 14:26:17;;;;;;;;;;;;;;;;;;;;;
2023/04/21 14:34:07;;;;;;;;;;;;;;;;;;;;;
2023/04/21 15:05:33;;;;;;;5.70;3.20;;;;;;;19.21;32.59;98926.20;269316;1272;22585;-87
2023/04/21 15:12:06;;;;;;;5.60;2.60;;;;;;;19.03;32.30;98916.09;270170;1272;24017;-86
2023/04/21 15:19:45;;;;;;;4.90;2.50;;;;;;;18.83;32.44;98912.27;269877;1274;23150;-88
2023/04/21 15:27:39;;;;;;;;;;;;;;;;;;;;;
2023/04/21 15:35:16;;;;;;;6.70;2.90;;;;;;;18.30;32.66;98905.20;270360;1272;22610;-88
2023/04/21 15:42:38;;;;;;;4.70;2.50;;;;;;;18.19;32.73;98902.99;267665;1278;22594;-88
2023/04/21 15:50:09;;;;;;;5.00;2.80;;;;;;;18.10;32.76;98900.56;270938;1278;22236;-88
2023/04/21 15:57:27;;;;;;;7.50;2.70;;;;;;;17.84;33.03;98898.07;271844;1278;22306;-88
2023/04/21 16:05:31;;;;;;;5.60;2.80;;;;;;;17.54;32.94;98893.59;264805;1276;10002836;-89
2023/04/21 16:13:22;;;;;;;7.20;3.00;;;;;;;17.39;32.80;98886.09;273852;1268;22343;-88
2023/04/21 16:27:57;;;;;;;6.70;3.60;;;;;;;17.06;33.63;98885.23;273627;1266;22310;-88
2023/04/21 16:35:38;;;;;;;5.30;3.40;;;;;;;16.89;33.86;98886.39;274191;1266;23841;-87
2023/04/21 16:42:25;;;;;;;5.00;2.90;;;;;;;16.73;34.00;98889.63;273963;1270;22407;-88
2023/04/21 16:57:30;;;;;;;5.10;2.90;;;;;;;16.33;34.72;98886.48;273206;1270;23598;-88
2023/04/21 17:04:12;;;;;;;6.80;3.10;;;;;;;16.12;34.97;98885.34;272232;1270;22551;-87
2023/04/21 17:11:44;;;;;;;6.50;3.10;;;;;;;15.89;35.32;98887.27;271654;1269;22553;-87
2023/04/21 17:18:58;;;;;;;5.10;3.10;;;;;;;15.57;35.86;98889.69;271470;1270;22486;-89
2023/04/21 17:26:45;;;;;;;4.70;3.00;;;;;;;15.34;36.09;98886.83;271032;1279;22350;-88
2023/04/21 17:34:37;;;;;;;;;;;;;;;;;;;;;
2023/04/21 17:41:49;;;;;;;4.50;2.80;;;;;;;14.76;37.94;98890.54;271812;1274;22244;-87
2023/04/21 17:49:27;;;;;;;;;;;;;;;;;;;;;
2023/04/21 17:57:06;;;;;;;;;;;;;;;;;;;;;
2023/04/21 18:04:17;;;;;;;12.50;4.80;;;;;;;13.22;41.35;98889.42;273148;1267;22406;-88
2023/04/21 18:11:42;;;;;;;16.80;6.70;;;;;;;12.70;42.45;98894.82;273963;1267;23260;-88
2023/04/21 18:19:50;;;;;;;15.40;8.60;;;;;;;12.19;43.49;98901.77;271745;1272;23887;-88
2023/04/21 18:27:27;;;;;;;20.70;9.80;;;;;;;11.71;44.79;98902.76;274005;1272;23487;-89
2023/04/21 18:35:07;;;;;;;19.50;9.70;;;;;;;11.41;45.77;98906.79;273988;1269;22896;-88
2023/04/21 18:41:49;;;;;;;19.00;9.80;;;;;;;11.16;46.64;98913.04;273282;1272;23327;-88
2023/04/21 18:48:47;;;;;;;17.40;9.40;;;;;;;10.92;47.20;98916.30;273685;1269;22389;-88
2023/04/21 18:56:31;;;;;;;18.40;10.30;;;;;;;10.61;48.15;98918.42;273703;1271;22297;-88
2023/04/21 19:11:49;;;;;;;25.70;15.70;;;;;;;9.99;49.89;98916.16;272635;1278;23121;-88
2023/04/21 19:34:37;;;;;;;32.80;19.60;;;;;;;9.22;52.31;98915.59;270806;1279;22584;-89
2023/04/21 19:41:27;;;;;;;30.70;20.50;;;;;;;8.90;52.81;98915.14;272473;1275;22246;-88
2023/04/21 19:48:40;;;;;;;38.40;21.80;;;;;;;8.65;53.67;98916.13;273017;1267;22589;-88
2023/04/21 19:55:27;;;;;;;45.20;24.20;;;;;;;8.45;54.50;98922.40;271471;1267;22516;-88
2023/04/21 20:03:23;;;;;;;45.60;24.80;;;;;;;8.22;55.35;98924.29;271658;1270;22598;-88
2023/04/21 20:10:40;;;;;;;43.60;23.40;;;;;;;8.00;57.11;98927.36;271565;1271;22394;-89
2023/04/21 20:18:18;;;;;;;42.50;23.20;;;;;;;7.87;58.19;98926.63;272941;1270;22271;-88
2023/04/21 20:33:13;;;;;;;43.50;21.70;;;;;;;7.47;60.26;98930.82;271717;1280;22254;-88
2023/04/21 20:40:11;;;;;;;45.40;23.50;;;;;;;7.25;60.76;98937.40;272180;1280;22540;-88
2023/04/21 20:47:33;;;;;;;46.10;25.70;;;;;;;7.07;61.22;98943.58;269782;1286;23383;-88
2023/04/21 20:55:31;;;;;;;53.40;25.80;;;;;;;6.87;62.01;98946.96;270713;1286;22232;-89
2023/04/21 21:02:41;;;;;;;46.10;23.40;;;;;;;6.70;62.95;98948.73;270500;1284;23725;-89
2023/04/21 21:09:35;;;;;;;49.20;25.70;;;;;;;6.58;63.82;98951.44;272005;1273;22384;-88
2023/04/21 21:17:31;;;;;;;55.30;26.80;;;;;;;6.44;64.22;98955.05;271318;1254;22273;-88
2023/04/21 21:24:50;;;;;;;66.10;28.30;;;;;;;6.23;64.45;98956.09;272629;1270;22462;-88
2023/04/21 21:32:52;;;;;;;47.40;24.70;;;;;;;5.94;65.10;98948.84;273137;1273;22247;-88
2023/04/21 21:40:53;;;;;;;57.70;27.00;;;;;;;5.83;66.62;98944.48;272819;1268;23353;-88
2023/04/21 21:48:15;;;;;;;47.00;23.70;;;;;;;5.61;66.50;98949.08;271158;1275;22501;-88
2023/04/21 21:55:39;;;;;;;56.90;27.80;;;;;;;5.41;66.23;98955.39;273127;1269;22343;-89
2023/04/21 22:10:36;;;;;;;55.00;25.30;;;;;;;5.06;68.33;98963.04;270508;1272;22593;-88
2023/04/21 22:17:26;;;;;;;53.70;26.50;;;;;;;5.02;69.51;98961.52;271181;1272;22337;-88
2023/04/21 22:24:10;;;;;;;49.70;26.10;;;;;;;4.94;70.03;98965.43;272806;1272;22296;-88
2023/04/21 22:32:01;;;;;;;45.80;24.20;;;;;;;4.83;71.03;98967.50;270235;1267;22516;-88
2023/04/21 22:38:53;;;;;;;45.80;24.70;;;;;;;4.77;71.26;98966.14;271149;1266;22511;-88
2023/04/21 22:47:04;;;;;;;45.30;24.80;;;;;;;4.68;71.58;98959.16;269320;1272;22784;-89
2023/04/21 22:54:25;;;;;;;53.60;28.30;;;;;;;4.54;72.21;98960.15;270438;1270;22250;-88
2023/04/21 23:09:32;;;;;;;45.80;23.90;;;;;;;4.38;73.65;98959.21;273421;1270;22413;-90
2023/04/21 23:32:49;;;;;;;56.30;30.30;;;;;;;3.99;74.97;98959.43;270435;1272;22601;-89
2023/04/21 23:40:29;;;;;;;55.50;28.40;;;;;;;3.95;75.54;98952.18;266410;1272;7264547;-88
2023/04/21 23:47:22;;;;;;;47.10;27.60;;;;;;;4.00;76.74;98947.65;271792;1267;22715;-88
2023/04/21 23:54:49;;;;;;;57.60;30.90;;;;;;;3.98;76.73;98950.58;271182;1272;22356;-89
